createdAt,value
2022-12-05T00:02:01.899Z,82.12
2022-12-05T00:04:29.850Z,82.08
2022-12-05T00:06:57.694Z,82.04
2022-12-05T00:09:27.031Z,82.44
2022-12-05T00:11:54.836Z,82.49
2022-12-05T00:14:22.546Z,82.01
2022-12-05T00:16:50.323Z,81.86
2022-12-05T00:19:18.281Z,82.38
2022-12-05T00:21:46.172Z,82.38
2022-12-05T00:24:16.905Z,82.60
2022-12-05T00:26:45.850Z,82.44
2022-12-05T00:29:14.096Z,82.86
2022-12-05T00:31:42.311Z,82.31
2022-12-05T00:34:10.184Z,82.72
2022-12-05T00:36:38.893Z,82.61
2022-12-05T00:39:10.145Z,83.10
2022-12-05T00:41:38.422Z,82.51
2022-12-05T00:44:07.781Z,82.27
2022-12-05T00:46:37.346Z,82.34
2022-12-05T00:49:08.274Z,81.87
2022-12-05T00:51:40.258Z,82.76
2022-12-05T00:54:11.759Z,82.34
2022-12-05T00:56:40.307Z,82.60
2022-12-05T00:59:15.079Z,82.28
2022-12-05T01:01:45.371Z,82.86
2022-12-05T01:04:16.776Z,82.24
2022-12-05T01:06:45.195Z,82.50
2022-12-05T01:09:16.475Z,82.67
2022-12-05T01:11:45.058Z,82.38
2022-12-05T01:14:17.113Z,83.11
2022-12-05T01:16:47.627Z,83.29
2022-12-05T01:19:19.931Z,83.31
2022-12-05T01:21:48.495Z,83.32
2022-12-05T01:24:18.048Z,83.68
2022-12-05T01:26:47.313Z,82.86
2022-12-05T01:29:20.095Z,83.50
2022-12-05T01:31:48.792Z,83.62
2022-12-05T01:34:19.548Z,83.68
2022-12-05T01:36:47.947Z,84.63
2022-12-05T01:39:16.583Z,84.87
2022-12-05T01:41:48.262Z,84.46
2022-12-05T01:45:05.993Z,84.69
2022-12-05T01:47:38.171Z,84.98
2022-12-05T01:50:08.741Z,85.04
2022-12-05T01:52:37.785Z,84.67
2022-12-05T01:55:11.799Z,84.28
2022-12-05T01:57:40.643Z,84.46
2022-12-05T02:00:15.504Z,84.90
2022-12-05T02:02:49.508Z,85.07
2022-12-05T02:05:22.869Z,85.34
2022-12-05T02:07:51.069Z,84.84
2022-12-05T02:10:20.337Z,85.21
2022-12-05T02:12:50.842Z,85.19
2022-12-05T02:15:48.317Z,85.35
2022-12-05T02:18:35.692Z,84.83
2022-12-05T02:21:29.254Z,84.68
2022-12-05T02:24:28.691Z,84.71
2022-12-05T02:27:22.506Z,85.18
2022-12-05T02:30:06.821Z,85.40
2022-12-05T02:32:50.753Z,85.56
2022-12-05T02:35:38.298Z,85.74
2022-12-05T02:38:22.425Z,85.87
2022-12-05T02:41:02.922Z,85.86
2022-12-05T02:43:40.048Z,85.75
2022-12-05T02:46:15.299Z,85.52
2022-12-05T02:48:47.582Z,85.94
2022-12-05T02:51:21.481Z,85.88
2022-12-05T02:53:52.487Z,86.19
2022-12-05T02:56:21.797Z,86.19
2022-12-05T02:58:54.782Z,86.07
2022-12-05T03:01:30.072Z,86.34
2022-12-05T03:04:02.860Z,86.31
2022-12-05T03:06:35.504Z,85.88
2022-12-05T03:09:10.086Z,86.37
2022-12-05T03:11:46.659Z,86.28
2022-12-05T03:14:22.753Z,86.22
2022-12-05T03:16:55.107Z,86.11
2022-12-05T03:19:31.101Z,86.10
2022-12-05T03:22:04.168Z,85.38
2022-12-05T03:24:36.470Z,85.70
2022-12-05T03:27:16.828Z,85.73
2022-12-05T03:29:53.492Z,85.86
2022-12-05T03:32:29.267Z,85.44
2022-12-05T03:35:10.234Z,85.12
2022-12-05T03:37:50.755Z,84.89
2022-12-05T03:40:31.962Z,83.82
2022-12-05T03:43:10.280Z,83.80
2022-12-05T03:45:46.969Z,84.18
2022-12-05T03:48:28.966Z,84.05
2022-12-05T03:51:00.483Z,84.07
2022-12-05T03:53:35.497Z,84.33
2022-12-05T03:56:09.397Z,84.57
2022-12-05T03:58:50.560Z,84.30
2022-12-05T04:01:23.115Z,83.92
2022-12-05T04:03:58.984Z,83.77
2022-12-05T04:06:34.892Z,83.71
2022-12-05T04:09:16.676Z,84.55
2022-12-05T04:11:54.327Z,84.36
2022-12-05T04:14:33.907Z,83.95
2022-12-05T04:17:06.117Z,84.50
2022-12-05T04:20:02.717Z,84.01
2022-12-05T04:22:31.320Z,84.79
2022-12-05T04:25:22.540Z,84.63
2022-12-05T04:27:59.089Z,83.23
2022-12-05T04:30:36.823Z,83.54
2022-12-05T04:33:11.304Z,84.25
2022-12-05T04:35:48.736Z,84.38
2022-12-05T04:38:24.239Z,84.13
2022-12-05T04:41:00.008Z,84.35
2022-12-05T04:43:31.991Z,84.17
2022-12-05T04:46:04.452Z,84.09
2022-12-05T04:48:38.424Z,84.07
2022-12-05T04:51:14.025Z,83.71
2022-12-05T04:53:46.600Z,83.69
2022-12-05T04:56:20.578Z,83.64
2022-12-05T04:58:48.722Z,83.92
2022-12-05T05:01:24.038Z,84.65
2022-12-05T05:03:58.996Z,84.52
2022-12-05T05:06:28.520Z,84.40
2022-12-05T05:08:59.602Z,84.58
2022-12-05T05:11:31.177Z,84.70
2022-12-05T05:13:58.967Z,85.04
2022-12-05T05:16:30.682Z,85.11
2022-12-05T05:18:59.095Z,85.25
2022-12-05T05:21:31.954Z,85.14
2022-12-05T05:24:00.664Z,85.29
2022-12-05T05:26:30.813Z,85.29
2022-12-05T05:28:59.572Z,85.22
2022-12-05T05:31:27.745Z,85.14
2022-12-05T05:33:58.258Z,85.38
2022-12-05T05:36:29.656Z,84.84
2022-12-05T05:39:00.724Z,85.16
2022-12-05T05:41:32.436Z,84.23
2022-12-05T05:44:01.570Z,85.04
2022-12-05T05:46:32.355Z,84.67
2022-12-05T05:49:00.888Z,84.93
2022-12-05T05:51:30.418Z,84.42
2022-12-05T05:54:00.087Z,83.56
2022-12-05T05:56:28.585Z,83.57
2022-12-05T05:58:59.030Z,83.76
2022-12-05T06:01:26.881Z,84.29
2022-12-05T06:03:54.875Z,84.20
2022-12-05T06:06:23.282Z,84.02
2022-12-05T06:08:52.524Z,83.47
2022-12-05T06:11:26.306Z,83.95
2022-12-05T06:13:55.954Z,84.04
2022-12-05T06:16:25.342Z,84.28
2022-12-05T06:18:54.343Z,84.40
2022-12-05T06:21:25.787Z,83.77
2022-12-05T06:23:56.156Z,83.98
2022-12-05T06:26:24.317Z,84.06
2022-12-05T06:28:52.414Z,84.25
2022-12-05T06:31:24.208Z,83.93
2022-12-05T06:33:52.288Z,83.88
2022-12-05T06:36:23.472Z,83.81
2022-12-05T06:38:51.306Z,83.26
2022-12-05T06:41:24.356Z,83.16
2022-12-05T06:44:00.155Z,83.15
2022-12-05T06:46:29.692Z,82.66
2022-12-05T06:48:59.776Z,82.88
2022-12-05T06:51:27.589Z,83.60
2022-12-05T06:53:57.274Z,83.65
2022-12-05T06:56:26.426Z,83.07
2022-12-05T06:58:55.605Z,82.28
2022-12-05T07:01:42.091Z,82.47
2022-12-05T07:04:15.708Z,82.32
2022-12-05T07:06:50.126Z,81.75
2022-12-05T07:09:20.483Z,81.43
2022-12-05T07:11:52.346Z,81.94
2022-12-05T07:17:08.227Z,81.90
2022-12-05T07:19:36.207Z,82.29
2022-12-05T07:22:04.437Z,81.36
2022-12-05T07:24:32.703Z,82.21
2022-12-05T07:27:01.851Z,81.96
2022-12-05T07:29:30.022Z,82.13
2022-12-05T07:31:57.902Z,81.70
2022-12-05T07:34:26.318Z,81.41
2022-12-05T07:36:55.053Z,81.85
2022-12-05T07:39:23.063Z,80.79
2022-12-05T07:41:50.844Z,80.98
2022-12-05T07:44:23.021Z,81.14
2022-12-05T07:46:50.869Z,82.12
2022-12-05T07:49:18.664Z,81.70
2022-12-05T07:51:46.559Z,82.08
2022-12-05T07:54:14.292Z,80.85
2022-12-05T07:56:46.273Z,80.98
2022-12-05T07:59:15.552Z,81.71
2022-12-05T08:01:44.668Z,80.98
2022-12-05T08:04:50.254Z,81.41
2022-12-05T08:07:18.239Z,81.59
2022-12-05T08:09:45.969Z,81.48
2022-12-05T08:12:13.637Z,81.90
2022-12-05T08:14:41.380Z,81.34
2022-12-05T08:17:10.827Z,80.85
2022-12-05T08:19:39.040Z,81.28
2022-12-05T08:22:06.760Z,81.18
2022-12-05T08:24:34.722Z,81.49
2022-12-05T08:27:02.782Z,81.44
2022-12-05T08:29:30.505Z,81.22
2022-12-05T08:31:58.663Z,81.27
2022-12-05T08:34:27.807Z,81.49
2022-12-05T08:36:56.934Z,81.99
2022-12-05T08:39:24.719Z,82.38
2022-12-05T08:41:52.474Z,81.74
2022-12-05T08:44:20.549Z,82.37
2022-12-05T08:46:50.996Z,82.52
2022-12-05T08:49:19.752Z,81.90
2022-12-05T08:51:49.077Z,82.45
2022-12-05T08:54:17.645Z,82.10
2022-12-05T08:56:45.628Z,82.62
2022-12-05T08:59:13.378Z,82.07
2022-12-05T09:01:42.237Z,82.42
2022-12-05T09:04:10.296Z,81.52
2022-12-05T09:06:39.215Z,81.66
2022-12-05T09:09:12.546Z,81.41
2022-12-05T09:11:46.522Z,81.66
2022-12-05T09:14:14.989Z,81.94
2022-12-05T09:16:46.347Z,81.57
2022-12-05T09:19:16.758Z,80.82
2022-12-05T09:21:45.327Z,80.47
2022-12-05T09:24:15.144Z,81.78
2022-12-05T09:26:44.647Z,81.90
2022-12-05T09:29:17.267Z,82.57
2022-12-05T09:31:47.447Z,82.98
2022-12-05T09:34:17.901Z,82.81
2022-12-05T09:36:46.083Z,82.98
2022-12-05T09:39:15.555Z,81.99
2022-12-05T09:42:13.461Z,82.12
2022-12-05T09:45:17.517Z,82.00
2022-12-05T09:47:56.672Z,83.29
2022-12-05T09:50:28.382Z,82.79
2022-12-05T09:53:11.736Z,82.44
2022-12-05T09:55:48.324Z,81.76
2022-12-05T09:58:26.998Z,81.91
2022-12-05T10:01:04.783Z,80.93
2022-12-05T10:03:43.258Z,81.16
2022-12-05T10:06:22.541Z,80.34
2022-12-05T10:09:22.751Z,78.78
2022-12-05T10:12:04.003Z,78.23
2022-12-05T10:14:47.846Z,77.31
2022-12-05T10:17:28.634Z,76.38
2022-12-05T10:20:04.063Z,77.01
2022-12-05T10:22:49.622Z,77.41
2022-12-05T10:25:23.074Z,76.65
2022-12-05T10:27:54.622Z,75.65
2022-12-05T10:30:24.972Z,75.36
2022-12-05T10:32:56.487Z,76.17
2022-12-05T10:35:27.495Z,76.00
2022-12-05T10:37:59.487Z,75.59
2022-12-05T10:40:34.522Z,77.23
2022-12-05T10:43:05.463Z,76.81
2022-12-05T10:45:33.686Z,76.52
2022-12-05T10:48:01.564Z,77.90
2022-12-05T10:50:33.680Z,79.20
2022-12-05T10:53:05.165Z,80.60
2022-12-05T10:56:06.523Z,80.21
2022-12-05T10:58:36.207Z,81.69
2022-12-05T11:01:15.848Z,81.39
2022-12-05T11:03:44.860Z,82.38
2022-12-05T11:06:19.153Z,82.50
2022-12-05T11:09:04.443Z,81.46
2022-12-05T11:11:36.268Z,82.71
2022-12-05T11:14:08.117Z,83.59
2022-12-05T11:16:40.229Z,84.08
2022-12-05T11:19:29.194Z,83.03
2022-12-05T11:21:57.885Z,83.21
2022-12-05T11:24:30.322Z,82.56
2022-12-05T11:27:00.373Z,82.58
2022-12-05T11:29:37.186Z,83.11
2022-12-05T11:32:13.068Z,81.90
2022-12-05T11:34:48.638Z,81.83
2022-12-05T11:37:26.275Z,83.31
2022-12-05T11:39:54.705Z,83.57
2022-12-05T11:42:44.917Z,84.35
2022-12-05T11:45:45.582Z,85.30
2022-12-05T11:48:36.919Z,84.91
2022-12-05T11:51:29.494Z,84.79
2022-12-05T11:55:02.926Z,84.18
2022-12-05T11:57:34.265Z,83.58
2022-12-05T12:00:22.138Z,84.54
2022-12-05T12:03:36.039Z,83.69
2022-12-05T12:06:28.682Z,84.03
2022-12-05T12:09:27.580Z,83.55
2022-12-05T12:12:08.616Z,84.00
2022-12-05T12:14:47.482Z,83.43
2022-12-05T12:17:28.727Z,83.26
2022-12-05T12:20:34.878Z,82.47
2022-12-05T12:23:29.346Z,83.58
2022-12-05T12:26:12.901Z,81.79
2022-12-05T12:28:50.258Z,81.71
2022-12-05T12:31:55.339Z,80.75
2022-12-05T12:35:04.307Z,82.05
2022-12-05T12:37:46.998Z,81.02
2022-12-05T12:40:22.428Z,80.91
2022-12-05T12:43:17.544Z,79.92
2022-12-05T12:46:15.228Z,81.28
2022-12-05T12:49:07.232Z,81.14
2022-12-05T12:51:35.713Z,79.77
2022-12-05T12:55:02.172Z,79.37
2022-12-05T12:57:35.555Z,79.40
2022-12-05T13:00:18.289Z,79.09
2022-12-05T13:02:54.113Z,79.96
2022-12-05T13:05:32.546Z,80.27
2022-12-05T13:08:12.431Z,80.33
2022-12-05T13:10:46.593Z,77.93
2022-12-05T13:13:21.832Z,79.47
2022-12-05T13:15:54.223Z,79.89
2022-12-05T13:18:25.771Z,79.97
2022-12-05T13:20:57.427Z,81.00
2022-12-05T13:23:30.374Z,79.83
2022-12-05T13:26:02.637Z,80.42
2022-12-05T13:28:35.779Z,80.61
2022-12-05T13:31:05.696Z,80.57
2022-12-05T13:33:37.820Z,80.74
2022-12-05T13:36:28.317Z,80.19
2022-12-05T13:39:20.273Z,79.94
2022-12-05T13:42:11.856Z,79.93
2022-12-05T13:44:46.133Z,80.25
2022-12-05T13:47:32.276Z,80.89
2022-12-05T13:50:15.469Z,80.21
2022-12-05T13:52:51.920Z,81.10
2022-12-05T13:55:35.349Z,82.90
2022-12-05T13:58:46.947Z,81.22
2022-12-05T14:01:55.740Z,81.43
2022-12-05T14:04:53.244Z,80.91
2022-12-05T14:07:44.039Z,80.14
2022-12-05T14:10:16.601Z,80.55
2022-12-05T14:12:59.707Z,79.96
2022-12-05T14:15:33.475Z,80.52
2022-12-05T14:18:07.601Z,80.63
2022-12-05T14:20:54.256Z,80.12
2022-12-05T14:24:02.364Z,80.71
2022-12-05T14:26:48.197Z,79.76
2022-12-05T14:29:37.259Z,79.61
2022-12-05T14:32:23.801Z,79.88
2022-12-05T14:35:02.803Z,80.77
2022-12-05T14:37:34.331Z,80.20
2022-12-05T14:40:17.768Z,80.21
2022-12-05T14:42:55.588Z,79.96
2022-12-05T14:45:31.422Z,79.59
2022-12-05T14:48:03.187Z,80.29
2022-12-05T14:50:46.961Z,79.51
2022-12-05T14:53:36.149Z,78.96
2022-12-05T14:56:16.079Z,79.25
2022-12-05T14:58:51.425Z,80.71
2022-12-05T15:01:24.225Z,79.70
2022-12-05T15:04:20.550Z,79.94
2022-12-05T15:06:53.421Z,79.30
2022-12-05T15:09:43.978Z,79.54
2022-12-05T15:12:17.690Z,79.81
2022-12-05T15:14:56.056Z,79.78
2022-12-05T15:17:31.262Z,79.10
2022-12-05T15:20:11.267Z,79.08
2022-12-05T15:22:39.055Z,79.17
2022-12-05T15:25:29.647Z,80.31
2022-12-05T15:28:02.659Z,79.92
2022-12-05T15:30:33.697Z,80.63
2022-12-05T15:33:03.628Z,80.12
2022-12-05T15:35:35.966Z,78.53
2022-12-05T15:38:20.053Z,79.46
2022-12-05T15:40:51.891Z,79.69
2022-12-05T15:43:30.858Z,79.38
2022-12-05T15:46:10.695Z,78.45
2022-12-05T15:48:38.566Z,78.68
2022-12-05T15:51:08.136Z,79.18
2022-12-05T15:53:43.439Z,79.20
2022-12-05T15:56:20.306Z,78.13
2022-12-05T15:58:53.623Z,79.96
2022-12-05T16:01:24.374Z,79.27
2022-12-05T16:03:59.032Z,79.32
2022-12-05T16:06:35.812Z,79.35
2022-12-05T16:09:11.832Z,78.97
2022-12-05T16:11:40.411Z,79.33
2022-12-05T16:14:09.507Z,79.08
2022-12-05T16:16:40.318Z,78.89
2022-12-05T16:19:17.753Z,78.49
2022-12-05T16:22:00.489Z,80.06
2022-12-05T16:24:31.946Z,79.62
2022-12-05T16:27:04.403Z,79.54
2022-12-05T16:29:35.533Z,79.39
2022-12-05T16:32:08.004Z,80.40
2022-12-05T16:34:36.188Z,80.13
2022-12-05T16:37:08.076Z,79.38
2022-12-05T16:39:35.902Z,79.22
2022-12-05T16:42:04.367Z,78.65
2022-12-05T16:45:03.524Z,78.70
2022-12-05T16:47:56.268Z,78.15
2022-12-05T16:50:32.344Z,78.29
2022-12-05T16:53:19.343Z,77.25
2022-12-05T16:55:47.802Z,77.51
2022-12-05T16:58:25.901Z,78.76
2022-12-05T17:00:59.656Z,78.77
2022-12-05T17:03:36.167Z,78.98
2022-12-05T17:06:05.274Z,79.68
2022-12-05T17:08:34.779Z,78.77
2022-12-05T17:11:03.968Z,78.04
2022-12-05T17:13:33.884Z,77.97
2022-12-05T17:16:01.839Z,77.82
2022-12-05T17:18:31.780Z,78.71
2022-12-05T17:21:03.062Z,77.69
2022-12-05T17:23:31.062Z,78.80
2022-12-05T17:26:00.902Z,78.16
2022-12-05T17:28:28.736Z,78.02
2022-12-05T17:31:05.198Z,79.03
2022-12-05T17:33:33.250Z,78.09
2022-12-05T17:36:01.115Z,78.39
2022-12-05T17:38:28.880Z,77.82
2022-12-05T17:40:57.138Z,77.75
2022-12-05T17:43:26.242Z,77.78
2022-12-05T17:45:54.977Z,78.18
2022-12-05T17:48:23.880Z,78.24
2022-12-05T17:50:52.004Z,78.34
2022-12-05T17:53:22.308Z,79.29
2022-12-05T17:55:50.375Z,77.94
2022-12-05T17:58:18.839Z,78.29
2022-12-05T18:00:48.485Z,78.25
2022-12-05T18:03:19.644Z,78.15
2022-12-05T18:05:48.460Z,79.80
2022-12-05T18:08:17.366Z,78.33
2022-12-05T18:10:47.911Z,78.27
2022-12-05T18:13:16.754Z,78.21
2022-12-05T18:15:49.225Z,78.75
2022-12-05T18:18:19.147Z,78.84
2022-12-05T18:20:46.883Z,78.10
2022-12-05T18:23:14.986Z,79.82
2022-12-05T18:25:42.946Z,78.15
2022-12-05T18:28:11.654Z,79.41
2022-12-05T18:30:43.945Z,79.22
2022-12-05T18:33:13.851Z,78.99
2022-12-05T18:35:42.606Z,78.93
2022-12-05T18:38:12.323Z,78.88
2022-12-05T18:40:40.672Z,77.57
2022-12-05T18:43:08.774Z,77.52
2022-12-05T18:45:36.586Z,78.10
2022-12-05T18:48:23.226Z,76.25
2022-12-05T18:50:54.382Z,78.03
2022-12-05T18:53:22.404Z,77.62
2022-12-05T18:56:13.499Z,78.18
2022-12-05T18:58:39.093Z,77.79
2022-12-05T19:01:09.155Z,77.42
2022-12-05T19:03:38.832Z,77.20
2022-12-05T19:06:14.871Z,77.98
2022-12-05T19:08:44.408Z,78.50
2022-12-05T19:11:13.201Z,77.97
2022-12-05T19:13:41.188Z,78.80
2022-12-05T19:16:14.453Z,79.20
2022-12-05T19:18:42.624Z,79.41
2022-12-05T19:21:10.608Z,79.29
2022-12-05T19:23:40.534Z,78.40
2022-12-05T19:26:10.996Z,77.65
2022-12-05T19:28:39.314Z,79.60
2022-12-05T19:31:09.739Z,79.63
2022-12-05T19:33:40.495Z,79.94
2022-12-05T19:36:12.431Z,80.11
2022-12-05T19:38:44.251Z,78.83
2022-12-05T19:41:16.744Z,81.03
2022-12-05T19:43:45.808Z,80.91
2022-12-05T19:46:18.894Z,80.19
2022-12-05T19:48:47.707Z,80.55
2022-12-05T19:51:16.029Z,79.56
2022-12-05T19:53:47.543Z,79.55
2022-12-05T19:56:19.048Z,80.28
2022-12-05T19:58:48.711Z,80.20
2022-12-05T20:01:19.454Z,79.46
2022-12-05T20:03:50.087Z,80.90
2022-12-05T20:06:19.578Z,80.38
2022-12-05T20:08:52.264Z,79.85
2022-12-05T20:11:31.307Z,79.65
2022-12-05T20:14:02.529Z,79.94
2022-12-05T20:16:31.344Z,79.67
2022-12-05T20:19:00.463Z,79.99
2022-12-05T20:21:30.632Z,79.38
2022-12-05T20:24:03.207Z,79.90
2022-12-05T20:26:34.380Z,80.92
2022-12-05T20:29:05.123Z,80.86
2022-12-05T20:31:35.412Z,79.62
2022-12-05T20:34:04.398Z,79.02
2022-12-05T20:36:35.589Z,78.88
2022-12-05T20:39:08.407Z,78.49
2022-12-05T20:41:36.389Z,78.53
2022-12-05T20:44:07.207Z,78.22
2022-12-05T20:46:36.808Z,78.82
2022-12-05T20:49:05.121Z,78.85
2022-12-05T20:51:35.365Z,78.85
2022-12-05T20:54:07.287Z,78.79
2022-12-05T20:56:36.523Z,78.22
2022-12-05T20:59:06.959Z,79.38
2022-12-05T21:01:37.305Z,78.19
2022-12-05T21:04:08.205Z,78.61
2022-12-05T21:06:38.089Z,79.02
2022-12-05T21:09:15.379Z,78.46
2022-12-05T21:11:43.681Z,78.88
2022-12-05T21:14:12.604Z,79.90
2022-12-05T21:16:40.404Z,77.97
2022-12-05T21:19:08.767Z,79.09
2022-12-05T21:21:36.540Z,77.34
2022-12-05T21:24:08.112Z,78.13
2022-12-05T21:26:36.688Z,77.77
2022-12-05T21:29:07.424Z,78.28
2022-12-05T21:31:38.367Z,76.34
2022-12-05T21:34:09.870Z,76.66
2022-12-05T21:36:37.860Z,77.00
2022-12-05T21:39:07.598Z,77.75
2022-12-05T21:41:35.914Z,76.86
2022-12-05T21:44:03.728Z,77.76
2022-12-05T21:46:32.426Z,77.41
2022-12-05T21:49:00.325Z,75.96
2022-12-05T21:51:28.254Z,76.38
2022-12-05T21:53:56.139Z,77.00
2022-12-05T21:56:25.595Z,77.90
2022-12-05T21:58:54.043Z,78.75
2022-12-05T22:01:25.943Z,78.15
2022-12-05T22:03:59.066Z,77.11
2022-12-05T22:06:27.276Z,78.74
2022-12-05T22:08:55.893Z,79.05
2022-12-05T22:11:26.518Z,78.96
2022-12-05T22:13:54.580Z,78.58
2022-12-05T22:16:35.244Z,77.86
2022-12-05T22:19:07.573Z,77.68
2022-12-05T22:21:35.600Z,78.67
2022-12-05T22:24:03.605Z,78.30
2022-12-05T22:26:32.700Z,78.14
2022-12-05T22:29:00.503Z,78.28
2022-12-05T22:31:28.296Z,78.20
2022-12-05T22:33:56.120Z,79.13
2022-12-05T22:36:24.291Z,79.24
2022-12-05T22:38:52.725Z,78.76
2022-12-05T22:41:23.142Z,79.28
2022-12-05T22:43:57.706Z,78.04
2022-12-05T22:46:27.706Z,78.06
2022-12-05T22:48:55.957Z,78.56
2022-12-05T22:51:24.880Z,77.14
2022-12-05T22:53:54.114Z,77.71
2022-12-05T22:56:25.919Z,77.23
2022-12-05T22:58:57.380Z,78.85
2022-12-05T23:01:28.837Z,77.33
2022-12-05T23:04:00.915Z,77.79
2022-12-05T23:06:30.608Z,78.44
2022-12-05T23:08:59.199Z,78.20
2022-12-05T23:11:27.931Z,78.29
2022-12-05T23:14:01.669Z,78.22
2022-12-05T23:16:32.956Z,78.27
2022-12-05T23:19:04.059Z,77.07
2022-12-05T23:21:35.392Z,78.10
2022-12-05T23:24:06.047Z,78.45
2022-12-05T23:26:37.907Z,77.58
2022-12-05T23:29:07.730Z,78.26
2022-12-05T23:31:35.985Z,76.85
2022-12-05T23:34:05.152Z,77.29
2022-12-05T23:36:35.899Z,75.66
2022-12-05T23:39:04.613Z,76.07
2022-12-05T23:41:32.619Z,76.34
2022-12-05T23:44:00.470Z,76.62
2022-12-05T23:46:30.923Z,76.55
2022-12-05T23:49:00.103Z,75.54
2022-12-05T23:51:31.210Z,76.32
2022-12-05T23:54:01.936Z,74.80
2022-12-05T23:56:33.323Z,76.95
2022-12-05T23:59:02.906Z,76.10
